sensor_id;sensor_type;location;lat;lon;timestamp;temperature;humidity
26342;DHT22;14054;50.108;8.640;2023-11-21T00:02:14;9.50;99.90
26342;DHT22;14054;50.108;8.640;2023-11-21T00:04:39;9.50;99.90
26342;DHT22;14054;50.108;8.640;2023-11-21T00:07:05;9.50;99.90
26342;DHT22;14054;50.108;8.640;2023-11-21T00:09:31;9.50;99.90
26342;DHT22;14054;50.108;8.640;2023-11-21T00:11:57;9.50;99.90
26342;DHT22;14054;50.108;8.640;2023-11-21T00:14:22;9.50;99.90
26342;DHT22;14054;50.108;8.640;2023-11-21T00:16:48;9.50;99.90
26342;DHT22;14054;50.108;8.640;2023-11-21T00:19:14;9.50;99.90
26342;DHT22;14054;50.108;8.640;2023-11-21T00:21:39;9.50;99.90
26342;DHT22;14054;50.108;8.640;2023-11-21T00:24:05;9.50;99.90
26342;DHT22;14054;50.108;8.640;2023-11-21T00:26:30;9.60;99.90
26342;DHT22;14054;50.108;8.640;2023-11-21T00:29:01;9.60;99.90
26342;DHT22;14054;50.108;8.640;2023-11-21T00:31:27;9.50;99.90
26342;DHT22;14054;50.108;8.640;2023-11-21T00:33:52;9.60;99.90
26342;DHT22;14054;50.108;8.640;2023-11-21T00:36:20;9.50;99.90
26342;DHT22;14054;50.108;8.640;2023-11-21T00:38:45;9.50;99.90
26342;DHT22;14054;50.108;8.640;2023-11-21T00:41:11;9.50;99.90
26342;DHT22;14054;50.108;8.640;2023-11-21T00:43:36;9.40;99.90
26342;DHT22;14054;50.108;8.640;2023-11-21T00:46:05;9.40;99.90
26342;DHT22;14054;50.108;8.640;2023-11-21T00:48:33;9.30;99.90
26342;DHT22;14054;50.108;8.640;2023-11-21T00:50:58;9.30;99.90
26342;DHT22;14054;50.108;8.640;2023-11-21T00:53:24;9.30;99.90
26342;DHT22;14054;50.108;8.640;2023-11-21T00:55:49;9.30;99.90
26342;DHT22;14054;50.108;8.640;2023-11-21T00:58:15;9.30;99.90
26342;DHT22;14054;50.108;8.640;2023-11-21T01:00:40;9.30;99.90
26342;DHT22;14054;50.108;8.640;2023-11-21T01:03:06;9.20;99.90
26342;DHT22;14054;50.108;8.640;2023-11-21T01:05:33;9.20;99.90
26342;DHT22;14054;50.108;8.640;2023-11-21T01:07:59;9.20;99.90
26342;DHT22;14054;50.108;8.640;2023-11-21T01:10:25;9.20;99.90
26342;DHT22;14054;50.108;8.640;2023-11-21T01:12:50;9.20;99.90
26342;DHT22;14054;50.108;8.640;2023-11-21T01:15:16;9.20;99.90
26342;DHT22;14054;50.108;8.640;2023-11-21T01:17:41;9.20;99.90
26342;DHT22;14054;50.108;8.640;2023-11-21T01:20:08;9.20;99.90
26342;DHT22;14054;50.108;8.640;2023-11-21T01:22:38;9.20;99.90
26342;DHT22;14054;50.108;8.640;2023-11-21T01:25:04;9.20;99.90
26342;DHT22;14054;50.108;8.640;2023-11-21T01:27:32;9.20;99.90
26342;DHT22;14054;50.108;8.640;2023-11-21T01:29:57;9.30;99.90
26342;DHT22;14054;50.108;8.640;2023-11-21T01:32:23;9.30;99.90
26342;DHT22;14054;50.108;8.640;2023-11-21T01:34:50;9.30;99.90
26342;DHT22;14054;50.108;8.640;2023-11-21T01:37:16;9.20;99.90
26342;DHT22;14054;50.108;8.640;2023-11-21T01:39:43;9.20;99.90
26342;DHT22;14054;50.108;8.640;2023-11-21T01:42:10;9.30;99.90
26342;DHT22;14054;50.108;8.640;2023-11-21T01:44:38;9.20;99.90
26342;DHT22;14054;50.108;8.640;2023-11-21T01:47:07;9.20;99.90
26342;DHT22;14054;50.108;8.640;2023-11-21T01:49:33;9.30;99.90
26342;DHT22;14054;50.108;8.640;2023-11-21T01:51:59;9.30;99.90
26342;DHT22;14054;50.108;8.640;2023-11-21T01:54:25;9.30;99.90
26342;DHT22;14054;50.108;8.640;2023-11-21T01:56:51;9.20;99.90
26342;DHT22;14054;50.108;8.640;2023-11-21T01:59:21;9.20;99.90
26342;DHT22;14054;50.108;8.640;2023-11-21T02:01:47;9.20;99.90
26342;DHT22;14054;50.108;8.640;2023-11-21T02:04:13;9.20;99.90
26342;DHT22;14054;50.108;8.640;2023-11-21T02:06:39;9.30;99.90
26342;DHT22;14054;50.108;8.640;2023-11-21T02:09:05;9.20;99.90
26342;DHT22;14054;50.108;8.640;2023-11-21T02:11:30;9.30;99.90
26342;DHT22;14054;50.108;8.640;2023-11-21T02:13:59;9.30;99.90
26342;DHT22;14054;50.108;8.640;2023-11-21T02:16:24;9.30;99.90
26342;DHT22;14054;50.108;8.640;2023-11-21T02:18:51;9.30;99.90
26342;DHT22;14054;50.108;8.640;2023-11-21T02:21:17;9.30;99.90
26342;DHT22;14054;50.108;8.640;2023-11-21T02:23:44;9.30;99.90
26342;DHT22;14054;50.108;8.640;2023-11-21T02:26:12;9.30;99.90
26342;DHT22;14054;50.108;8.640;2023-11-21T02:28:37;9.30;99.90
26342;DHT22;14054;50.108;8.640;2023-11-21T02:31:04;9.40;99.90
26342;DHT22;14054;50.108;8.640;2023-11-21T02:33:30;9.30;99.90
26342;DHT22;14054;50.108;8.640;2023-11-21T02:35:59;9.40;99.90
26342;DHT22;14054;50.108;8.640;2023-11-21T02:38:25;9.40;99.90
26342;DHT22;14054;50.108;8.640;2023-11-21T02:40:50;9.30;99.90
26342;DHT22;14054;50.108;8.640;2023-11-21T02:43:16;9.30;99.90
26342;DHT22;14054;50.108;8.640;2023-11-21T02:45:41;9.20;99.90
26342;DHT22;14054;50.108;8.640;2023-11-21T02:48:07;9.20;99.90
26342;DHT22;14054;50.108;8.640;2023-11-21T02:50:33;9.20;99.90
26342;DHT22;14054;50.108;8.640;2023-11-21T02:53:00;9.20;99.90
26342;DHT22;14054;50.108;8.640;2023-11-21T02:55:27;9.10;99.90
26342;DHT22;14054;50.108;8.640;2023-11-21T02:57:53;9.10;99.90
26342;DHT22;14054;50.108;8.640;2023-11-21T03:00:18;9.20;99.90
26342;DHT22;14054;50.108;8.640;2023-11-21T03:02:44;9.20;99.90
26342;DHT22;14054;50.108;8.640;2023-11-21T03:05:10;9.20;99.90
26342;DHT22;14054;50.108;8.640;2023-11-21T03:07:37;9.20;99.90
26342;DHT22;14054;50.108;8.640;2023-11-21T03:10:02;9.20;99.90
26342;DHT22;14054;50.108;8.640;2023-11-21T03:12:29;9.20;99.90
26342;DHT22;14054;50.108;8.640;2023-11-21T03:14:55;9.10;99.90
26342;DHT22;14054;50.108;8.640;2023-11-21T03:17:20;9.10;99.90
26342;DHT22;14054;50.108;8.640;2023-11-21T03:19:46;9.10;99.90
26342;DHT22;14054;50.108;8.640;2023-11-21T03:22:11;9.10;99.90
26342;DHT22;14054;50.108;8.640;2023-11-21T03:24:37;9.10;99.90
26342;DHT22;14054;50.108;8.640;2023-11-21T03:27:04;9.10;99.90
26342;DHT22;14054;50.108;8.640;2023-11-21T03:29:29;9.10;99.90
26342;DHT22;14054;50.108;8.640;2023-11-21T03:31:55;9.20;99.90
26342;DHT22;14054;50.108;8.640;2023-11-21T03:34:26;9.20;99.90
26342;DHT22;14054;50.108;8.640;2023-11-21T03:36:52;9.20;99.90
26342;DHT22;14054;50.108;8.640;2023-11-21T03:39:19;9.20;99.90
26342;DHT22;14054;50.108;8.640;2023-11-21T03:41:44;9.20;99.90
26342;DHT22;14054;50.108;8.640;2023-11-21T03:44:10;9.10;99.90
26342;DHT22;14054;50.108;8.640;2023-11-21T03:46:36;9.10;99.90
26342;DHT22;14054;50.108;8.640;2023-11-21T03:49:01;9.10;99.90
26342;DHT22;14054;50.108;8.640;2023-11-21T03:51:27;9.10;99.90
26342;DHT22;14054;50.108;8.640;2023-11-21T03:53:52;9.10;99.90
26342;DHT22;14054;50.108;8.640;2023-11-21T03:56:18;9.10;99.90
26342;DHT22;14054;50.108;8.640;2023-11-21T03:58:43;9.10;99.90
26342;DHT22;14054;50.108;8.640;2023-11-21T04:01:09;9.20;99.90
26342;DHT22;14054;50.108;8.640;2023-11-21T04:03:34;9.20;99.90
26342;DHT22;14054;50.108;8.640;2023-11-21T04:06:00;9.20;99.90
26342;DHT22;14054;50.108;8.640;2023-11-21T04:08:26;9.20;99.90
26342;DHT22;14054;50.108;8.640;2023-11-21T04:10:51;9.20;99.90
26342;DHT22;14054;50.108;8.640;2023-11-21T04:13:19;9.20;99.90
26342;DHT22;14054;50.108;8.640;2023-11-21T04:15:44;9.20;99.90
26342;DHT22;14054;50.108;8.640;2023-11-21T04:18:10;9.20;99.90
26342;DHT22;14054;50.108;8.640;2023-11-21T04:20:35;9.20;99.90
26342;DHT22;14054;50.108;8.640;2023-11-21T04:23:01;9.20;99.90
26342;DHT22;14054;50.108;8.640;2023-11-21T04:25:26;9.20;99.90
26342;DHT22;14054;50.108;8.640;2023-11-21T04:27:53;9.30;99.90
26342;DHT22;14054;50.108;8.640;2023-11-21T04:30:19;9.30;99.90
26342;DHT22;14054;50.108;8.640;2023-11-21T04:32:46;9.20;99.90
26342;DHT22;14054;50.108;8.640;2023-11-21T04:35:11;9.20;99.90
26342;DHT22;14054;50.108;8.640;2023-11-21T04:37:37;9.20;99.90
26342;DHT22;14054;50.108;8.640;2023-11-21T04:40:03;9.30;99.90
26342;DHT22;14054;50.108;8.640;2023-11-21T04:42:37;9.20;99.90
26342;DHT22;14054;50.108;8.640;2023-11-21T04:45:07;9.20;99.90
26342;DHT22;14054;50.108;8.640;2023-11-21T04:47:37;9.20;99.90
26342;DHT22;14054;50.108;8.640;2023-11-21T04:50:03;9.20;99.90
26342;DHT22;14054;50.108;8.640;2023-11-21T04:52:29;9.20;99.90
26342;DHT22;14054;50.108;8.640;2023-11-21T04:54:54;9.20;99.90
26342;DHT22;14054;50.108;8.640;2023-11-21T04:57:21;9.20;99.90
26342;DHT22;14054;50.108;8.640;2023-11-21T04:59:48;9.20;99.90
26342;DHT22;14054;50.108;8.640;2023-11-21T05:02:13;9.30;99.90
26342;DHT22;14054;50.108;8.640;2023-11-21T05:04:39;9.20;99.90
26342;DHT22;14054;50.108;8.640;2023-11-21T05:07:04;9.20;99.90
26342;DHT22;14054;50.108;8.640;2023-11-21T05:09:30;9.20;99.90
26342;DHT22;14054;50.108;8.640;2023-11-21T05:11:57;9.30;99.90
26342;DHT22;14054;50.108;8.640;2023-11-21T05:14:23;9.30;99.90
26342;DHT22;14054;50.108;8.640;2023-11-21T05:16:48;9.20;99.90
26342;DHT22;14054;50.108;8.640;2023-11-21T05:19:17;9.30;99.90
26342;DHT22;14054;50.108;8.640;2023-11-21T05:21:42;9.30;99.90
26342;DHT22;14054;50.108;8.640;2023-11-21T05:24:08;9.30;99.90
26342;DHT22;14054;50.108;8.640;2023-11-21T05:26:35;9.30;99.90
26342;DHT22;14054;50.108;8.640;2023-11-21T05:29:00;9.30;99.90
26342;DHT22;14054;50.108;8.640;2023-11-21T05:31:26;9.30;99.90
26342;DHT22;14054;50.108;8.640;2023-11-21T05:33:52;9.30;99.90
26342;DHT22;14054;50.108;8.640;2023-11-21T05:36:18;9.30;99.90
26342;DHT22;14054;50.108;8.640;2023-11-21T05:38:44;9.30;99.90
26342;DHT22;14054;50.108;8.640;2023-11-21T05:41:09;9.30;99.90
26342;DHT22;14054;50.108;8.640;2023-11-21T05:43:38;9.30;99.90
26342;DHT22;14054;50.108;8.640;2023-11-21T05:46:04;9.30;99.90
26342;DHT22;14054;50.108;8.640;2023-11-21T05:48:31;9.30;99.90
26342;DHT22;14054;50.108;8.640;2023-11-21T05:50:56;9.30;99.90
26342;DHT22;14054;50.108;8.640;2023-11-21T05:53:22;9.30;99.90
26342;DHT22;14054;50.108;8.640;2023-11-21T05:55:47;9.30;99.90
26342;DHT22;14054;50.108;8.640;2023-11-21T05:58:13;9.30;99.90
26342;DHT22;14054;50.108;8.640;2023-11-21T06:00:39;9.40;99.90
26342;DHT22;14054;50.108;8.640;2023-11-21T06:03:04;9.40;99.90
26342;DHT22;14054;50.108;8.640;2023-11-21T06:05:33;9.30;99.90
26342;DHT22;14054;50.108;8.640;2023-11-21T06:07:58;9.30;99.90
26342;DHT22;14054;50.108;8.640;2023-11-21T06:10:24;9.30;99.90
26342;DHT22;14054;50.108;8.640;2023-11-21T06:12:50;9.40;99.90
26342;DHT22;14054;50.108;8.640;2023-11-21T06:15:16;9.30;99.90
26342;DHT22;14054;50.108;8.640;2023-11-21T06:17:44;9.30;99.90
26342;DHT22;14054;50.108;8.640;2023-11-21T06:20:11;9.30;99.90
26342;DHT22;14054;50.108;8.640;2023-11-21T06:22:40;9.30;99.90
26342;DHT22;14054;50.108;8.640;2023-11-21T06:25:06;9.30;99.90
26342;DHT22;14054;50.108;8.640;2023-11-21T06:27:34;9.30;99.90
26342;DHT22;14054;50.108;8.640;2023-11-21T06:30:01;9.30;99.90
26342;DHT22;14054;50.108;8.640;2023-11-21T06:32:27;9.30;99.90
26342;DHT22;14054;50.108;8.640;2023-11-21T06:34:55;9.30;99.90
26342;DHT22;14054;50.108;8.640;2023-11-21T06:37:21;9.20;99.90
26342;DHT22;14054;50.108;8.640;2023-11-21T06:39:49;9.20;99.90
26342;DHT22;14054;50.108;8.640;2023-11-21T06:42:14;9.20;99.90
26342;DHT22;14054;50.108;8.640;2023-11-21T06:44:40;9.20;99.90
26342;DHT22;14054;50.108;8.640;2023-11-21T06:47:07;9.20;99.90
26342;DHT22;14054;50.108;8.640;2023-11-21T06:49:32;9.20;99.90
26342;DHT22;14054;50.108;8.640;2023-11-21T06:51:58;9.30;99.90
26342;DHT22;14054;50.108;8.640;2023-11-21T06:54:24;9.20;99.90
26342;DHT22;14054;50.108;8.640;2023-11-21T06:56:50;9.20;99.90
26342;DHT22;14054;50.108;8.640;2023-11-21T06:59:15;9.20;99.90
26342;DHT22;14054;50.108;8.640;2023-11-21T07:01:41;9.30;99.90
26342;DHT22;14054;50.108;8.640;2023-11-21T07:04:07;9.20;99.90
26342;DHT22;14054;50.108;8.640;2023-11-21T07:06:33;9.20;99.90
26342;DHT22;14054;50.108;8.640;2023-11-21T07:08:58;9.20;99.90
26342;DHT22;14054;50.108;8.640;2023-11-21T07:11:24;9.20;99.90
26342;DHT22;14054;50.108;8.640;2023-11-21T07:13:50;9.20;99.90
26342;DHT22;14054;50.108;8.640;2023-11-21T07:16:16;9.20;99.90
26342;DHT22;14054;50.108;8.640;2023-11-21T07:18:41;9.20;99.90
26342;DHT22;14054;50.108;8.640;2023-11-21T07:21:07;9.20;99.90
26342;DHT22;14054;50.108;8.640;2023-11-21T07:23:33;9.20;99.90
26342;DHT22;14054;50.108;8.640;2023-11-21T07:25:59;9.20;99.90
26342;DHT22;14054;50.108;8.640;2023-11-21T07:28:24;9.30;99.90
26342;DHT22;14054;50.108;8.640;2023-11-21T07:30:51;9.30;99.90
26342;DHT22;14054;50.108;8.640;2023-11-21T07:33:16;9.30;99.90
26342;DHT22;14054;50.108;8.640;2023-11-21T07:35:43;9.30;99.90
26342;DHT22;14054;50.108;8.640;2023-11-21T07:38:08;9.30;99.90
26342;DHT22;14054;50.108;8.640;2023-11-21T07:40:34;9.20;99.90
26342;DHT22;14054;50.108;8.640;2023-11-21T07:42:59;9.30;99.90
26342;DHT22;14054;50.108;8.640;2023-11-21T07:45:25;9.30;99.90
26342;DHT22;14054;50.108;8.640;2023-11-21T07:47:55;9.30;99.90
26342;DHT22;14054;50.108;8.640;2023-11-21T07:50:22;9.30;99.90
26342;DHT22;14054;50.108;8.640;2023-11-21T07:52:48;9.40;99.90
26342;DHT22;14054;50.108;8.640;2023-11-21T07:55:15;9.40;99.90
26342;DHT22;14054;50.108;8.640;2023-11-21T07:57:40;9.40;99.90
26342;DHT22;14054;50.108;8.640;2023-11-21T08:00:06;9.50;99.90
26342;DHT22;14054;50.108;8.640;2023-11-21T08:02:34;9.50;99.90
26342;DHT22;14054;50.108;8.640;2023-11-21T08:05:00;9.50;99.90
26342;DHT22;14054;50.108;8.640;2023-11-21T08:07:26;9.50;99.90
26342;DHT22;14054;50.108;8.640;2023-11-21T08:09:51;9.50;99.90
26342;DHT22;14054;50.108;8.640;2023-11-21T08:12:18;9.60;99.90
26342;DHT22;14054;50.108;8.640;2023-11-21T08:14:45;9.50;99.90
26342;DHT22;14054;50.108;8.640;2023-11-21T08:17:11;9.60;99.90
26342;DHT22;14054;50.108;8.640;2023-11-21T08:19:36;9.60;99.90
26342;DHT22;14054;50.108;8.640;2023-11-21T08:22:03;9.60;99.90
26342;DHT22;14054;50.108;8.640;2023-11-21T08:24:28;9.60;99.90
26342;DHT22;14054;50.108;8.640;2023-11-21T08:26:54;9.60;99.90
26342;DHT22;14054;50.108;8.640;2023-11-21T08:29:20;9.70;99.90
26342;DHT22;14054;50.108;8.640;2023-11-21T08:31:45;9.60;99.90
26342;DHT22;14054;50.108;8.640;2023-11-21T08:34:12;9.60;99.90
26342;DHT22;14054;50.108;8.640;2023-11-21T08:36:42;9.70;99.90
26342;DHT22;14054;50.108;8.640;2023-11-21T08:39:09;9.70;99.90
26342;DHT22;14054;50.108;8.640;2023-11-21T08:41:35;9.80;99.90
26342;DHT22;14054;50.108;8.640;2023-11-21T08:44:02;9.70;99.90
26342;DHT22;14054;50.108;8.640;2023-11-21T08:46:32;9.80;99.90
26342;DHT22;14054;50.108;8.640;2023-11-21T08:49:00;9.80;99.90
26342;DHT22;14054;50.108;8.640;2023-11-21T08:51:26;9.90;99.90
26342;DHT22;14054;50.108;8.640;2023-11-21T08:53:51;9.90;99.90
26342;DHT22;14054;50.108;8.640;2023-11-21T08:56:17;10.00;99.90
26342;DHT22;14054;50.108;8.640;2023-11-21T08:58:45;10.10;99.90
26342;DHT22;14054;50.108;8.640;2023-11-21T09:01:12;10.20;99.90
26342;DHT22;14054;50.108;8.640;2023-11-21T09:03:37;10.20;99.90
26342;DHT22;14054;50.108;8.640;2023-11-21T09:06:03;10.40;99.90
26342;DHT22;14054;50.108;8.640;2023-11-21T09:08:29;10.40;99.90
26342;DHT22;14054;50.108;8.640;2023-11-21T09:10:55;10.40;99.90
26342;DHT22;14054;50.108;8.640;2023-11-21T09:13:20;10.50;99.90
26342;DHT22;14054;50.108;8.640;2023-11-21T09:15:46;10.50;99.90
26342;DHT22;14054;50.108;8.640;2023-11-21T09:18:15;10.50;99.90
26342;DHT22;14054;50.108;8.640;2023-11-21T09:20:41;10.50;99.90
26342;DHT22;14054;50.108;8.640;2023-11-21T09:23:09;10.40;99.90
26342;DHT22;14054;50.108;8.640;2023-11-21T09:25:35;10.50;99.90
26342;DHT22;14054;50.108;8.640;2023-11-21T09:28:03;10.60;99.90
26342;DHT22;14054;50.108;8.640;2023-11-21T09:30:33;10.80;99.90
26342;DHT22;14054;50.108;8.640;2023-11-21T09:32:59;10.80;99.90
26342;DHT22;14054;50.108;8.640;2023-11-21T09:35:24;10.90;99.90
26342;DHT22;14054;50.108;8.640;2023-11-21T09:37:50;11.10;99.90
26342;DHT22;14054;50.108;8.640;2023-11-21T09:40:21;11.00;99.90
26342;DHT22;14054;50.108;8.640;2023-11-21T09:42:57;10.90;99.90
26342;DHT22;14054;50.108;8.640;2023-11-21T09:45:27;10.80;99.90
26342;DHT22;14054;50.108;8.640;2023-11-21T09:47:55;10.60;99.90
26342;DHT22;14054;50.108;8.640;2023-11-21T09:50:21;10.50;99.90
26342;DHT22;14054;50.108;8.640;2023-11-21T09:55:34;10.20;99.90
26342;DHT22;14054;50.108;8.640;2023-11-21T09:58:02;10.00;99.90
26342;DHT22;14054;50.108;8.640;2023-11-21T10:00:30;10.10;99.90
26342;DHT22;14054;50.108;8.640;2023-11-21T10:02:58;10.40;99.90
26342;DHT22;14054;50.108;8.640;2023-11-21T10:05:24;10.50;99.90
26342;DHT22;14054;50.108;8.640;2023-11-21T10:07:50;10.70;99.90
26342;DHT22;14054;50.108;8.640;2023-11-21T10:10:19;11.30;99.90
26342;DHT22;14054;50.108;8.640;2023-11-21T10:12:49;11.70;99.90
26342;DHT22;14054;50.108;8.640;2023-11-21T10:15:20;11.70;99.90
26342;DHT22;14054;50.108;8.640;2023-11-21T10:17:49;11.70;99.90
26342;DHT22;14054;50.108;8.640;2023-11-21T10:20:15;11.80;99.90
26342;DHT22;14054;50.108;8.640;2023-11-21T10:22:41;12.10;99.90
26342;DHT22;14054;50.108;8.640;2023-11-21T10:25:11;12.60;99.90
26342;DHT22;14054;50.108;8.640;2023-11-21T10:27:40;12.20;99.90
26342;DHT22;14054;50.108;8.640;2023-11-21T10:30:06;12.50;99.90
26342;DHT22;14054;50.108;8.640;2023-11-21T10:32:42;12.40;99.90
26342;DHT22;14054;50.108;8.640;2023-11-21T10:35:08;12.60;99.90
26342;DHT22;14054;50.108;8.640;2023-11-21T10:37:36;12.60;99.90
26342;DHT22;14054;50.108;8.640;2023-11-21T10:40:06;13.10;99.90
26342;DHT22;14054;50.108;8.640;2023-11-21T10:42:32;13.20;99.90
26342;DHT22;14054;50.108;8.640;2023-11-21T10:44:58;13.30;99.90
26342;DHT22;14054;50.108;8.640;2023-11-21T10:47:23;12.90;99.90
26342;DHT22;14054;50.108;8.640;2023-11-21T10:49:49;13.10;99.90
26342;DHT22;14054;50.108;8.640;2023-11-21T10:52:15;13.20;99.90
26342;DHT22;14054;50.108;8.640;2023-11-21T10:54:43;13.60;99.90
26342;DHT22;14054;50.108;8.640;2023-11-21T10:57:10;13.50;99.90
26342;DHT22;14054;50.108;8.640;2023-11-21T10:59:36;14.50;99.90
26342;DHT22;14054;50.108;8.640;2023-11-21T11:02:10;15.00;99.90
26342;DHT22;14054;50.108;8.640;2023-11-21T11:04:41;15.90;99.90
26342;DHT22;14054;50.108;8.640;2023-11-21T11:07:08;16.10;99.90
26342;DHT22;14054;50.108;8.640;2023-11-21T11:09:37;17.20;99.90
26342;DHT22;14054;50.108;8.640;2023-11-21T11:12:03;18.60;99.90
26342;DHT22;14054;50.108;8.640;2023-11-21T11:14:32;19.60;95.90
26342;DHT22;14054;50.108;8.640;2023-11-21T11:16:58;19.70;93.40
26342;DHT22;14054;50.108;8.640;2023-11-21T11:19:25;17.60;94.20
26342;DHT22;14054;50.108;8.640;2023-11-21T11:22:19;18.70;93.30
26342;DHT22;14054;50.108;8.640;2023-11-21T11:28:20;17.10;94.50
26342;DHT22;14054;50.108;8.640;2023-11-21T11:31:04;16.30;96.20
26342;DHT22;14054;50.108;8.640;2023-11-21T11:33:47;15.80;97.80
26342;DHT22;14054;50.108;8.640;2023-11-21T11:36:26;15.60;98.80
26342;DHT22;14054;50.108;8.640;2023-11-21T11:38:54;15.60;99.40
26342;DHT22;14054;50.108;8.640;2023-11-21T11:41:26;15.10;99.90
26342;DHT22;14054;50.108;8.640;2023-11-21T11:43:56;15.00;99.90
26342;DHT22;14054;50.108;8.640;2023-11-21T11:46:40;14.80;99.90
26342;DHT22;14054;50.108;8.640;2023-11-21T11:49:07;14.70;99.90
26342;DHT22;14054;50.108;8.640;2023-11-21T11:51:33;14.40;99.90
26342;DHT22;14054;50.108;8.640;2023-11-21T11:54:01;13.60;99.90
26342;DHT22;14054;50.108;8.640;2023-11-21T11:56:29;13.20;99.90
26342;DHT22;14054;50.108;8.640;2023-11-21T11:58:57;13.10;99.90
26342;DHT22;14054;50.108;8.640;2023-11-21T12:01:26;13.40;99.90
26342;DHT22;14054;50.108;8.640;2023-11-21T12:06:51;13.50;99.90
26342;DHT22;14054;50.108;8.640;2023-11-21T12:09:22;13.00;99.90
26342;DHT22;14054;50.108;8.640;2023-11-21T12:11:49;12.90;99.90
26342;DHT22;14054;50.108;8.640;2023-11-21T12:14:15;13.20;99.90
26342;DHT22;14054;50.108;8.640;2023-11-21T12:16:41;13.00;99.90
26342;DHT22;14054;50.108;8.640;2023-11-21T12:19:08;12.90;99.90
26342;DHT22;14054;50.108;8.640;2023-11-21T12:21:34;12.60;99.90
26342;DHT22;14054;50.108;8.640;2023-11-21T12:24:01;12.50;99.90
26342;DHT22;14054;50.108;8.640;2023-11-21T12:26:27;12.70;99.90
26342;DHT22;14054;50.108;8.640;2023-11-21T12:28:53;12.40;99.90
26342;DHT22;14054;50.108;8.640;2023-11-21T12:31:21;12.30;99.90
26342;DHT22;14054;50.108;8.640;2023-11-21T12:33:47;12.00;99.90
26342;DHT22;14054;50.108;8.640;2023-11-21T12:36:12;12.00;99.90
26342;DHT22;14054;50.108;8.640;2023-11-21T12:38:38;12.00;99.90
26342;DHT22;14054;50.108;8.640;2023-11-21T12:41:04;11.90;99.90
26342;DHT22;14054;50.108;8.640;2023-11-21T12:43:32;11.80;99.90
26342;DHT22;14054;50.108;8.640;2023-11-21T12:46:11;11.90;99.90
26342;DHT22;14054;50.108;8.640;2023-11-21T12:48:41;12.00;99.90
26342;DHT22;14054;50.108;8.640;2023-11-21T12:51:08;11.90;99.90
26342;DHT22;14054;50.108;8.640;2023-11-21T12:53:35;11.90;99.90
26342;DHT22;14054;50.108;8.640;2023-11-21T12:56:12;11.80;99.90
26342;DHT22;14054;50.108;8.640;2023-11-21T12:58:39;11.80;99.90
26342;DHT22;14054;50.108;8.640;2023-11-21T13:01:06;12.10;99.90
26342;DHT22;14054;50.108;8.640;2023-11-21T13:03:37;11.90;99.90
26342;DHT22;14054;50.108;8.640;2023-11-21T13:06:04;12.10;99.90
26342;DHT22;14054;50.108;8.640;2023-11-21T13:08:30;12.30;99.90
26342;DHT22;14054;50.108;8.640;2023-11-21T13:10:58;12.20;99.90
26342;DHT22;14054;50.108;8.640;2023-11-21T13:13:24;12.20;99.90
26342;DHT22;14054;50.108;8.640;2023-11-21T13:15:55;12.10;99.90
26342;DHT22;14054;50.108;8.640;2023-11-21T13:18:22;12.20;99.90
26342;DHT22;14054;50.108;8.640;2023-11-21T13:20:48;12.00;99.90
26342;DHT22;14054;50.108;8.640;2023-11-21T13:23:15;11.90;99.90
26342;DHT22;14054;50.108;8.640;2023-11-21T13:25:42;12.00;99.90
26342;DHT22;14054;50.108;8.640;2023-11-21T13:28:08;11.90;99.90
26342;DHT22;14054;50.108;8.640;2023-11-21T13:30:35;11.80;99.90
26342;DHT22;14054;50.108;8.640;2023-11-21T13:33:01;11.80;99.90
26342;DHT22;14054;50.108;8.640;2023-11-21T13:35:31;11.90;99.90
26342;DHT22;14054;50.108;8.640;2023-11-21T13:38:21;12.10;99.90
26342;DHT22;14054;50.108;8.640;2023-11-21T13:40:52;12.20;99.90
26342;DHT22;14054;50.108;8.640;2023-11-21T13:43:21;12.00;99.90
26342;DHT22;14054;50.108;8.640;2023-11-21T13:45:49;12.00;99.90
26342;DHT22;14054;50.108;8.640;2023-11-21T13:48:24;12.00;99.90
26342;DHT22;14054;50.108;8.640;2023-11-21T13:51:11;12.00;99.90
26342;DHT22;14054;50.108;8.640;2023-11-21T13:53:46;11.80;99.90
26342;DHT22;14054;50.108;8.640;2023-11-21T13:56:17;11.70;99.90
26342;DHT22;14054;50.108;8.640;2023-11-21T13:58:47;11.70;99.90
26342;DHT22;14054;50.108;8.640;2023-11-21T14:01:20;11.60;99.90
26342;DHT22;14054;50.108;8.640;2023-11-21T14:04:02;11.50;99.90
26342;DHT22;14054;50.108;8.640;2023-11-21T14:06:37;11.50;99.90
26342;DHT22;14054;50.108;8.640;2023-11-21T14:09:13;11.40;99.90
26342;DHT22;14054;50.108;8.640;2023-11-21T14:11:54;11.40;99.90
26342;DHT22;14054;50.108;8.640;2023-11-21T14:14:22;11.30;99.90
26342;DHT22;14054;50.108;8.640;2023-11-21T14:16:49;11.30;99.90
26342;DHT22;14054;50.108;8.640;2023-11-21T14:19:15;11.20;99.90
26342;DHT22;14054;50.108;8.640;2023-11-21T14:21:44;11.20;99.90
26342;DHT22;14054;50.108;8.640;2023-11-21T14:24:14;11.20;99.90
26342;DHT22;14054;50.108;8.640;2023-11-21T14:26:43;11.10;99.90
26342;DHT22;14054;50.108;8.640;2023-11-21T14:29:10;11.10;99.90
26342;DHT22;14054;50.108;8.640;2023-11-21T14:31:40;11.10;99.90
26342;DHT22;14054;50.108;8.640;2023-11-21T14:34:07;11.10;99.90
26342;DHT22;14054;50.108;8.640;2023-11-21T14:36:33;11.00;99.90
26342;DHT22;14054;50.108;8.640;2023-11-21T14:38:59;11.00;99.90
26342;DHT22;14054;50.108;8.640;2023-11-21T14:41:25;11.00;99.90
26342;DHT22;14054;50.108;8.640;2023-11-21T14:43:53;10.90;99.90
26342;DHT22;14054;50.108;8.640;2023-11-21T14:46:19;10.80;99.90
26342;DHT22;14054;50.108;8.640;2023-11-21T14:48:45;10.80;99.90
26342;DHT22;14054;50.108;8.640;2023-11-21T14:51:24;10.80;99.90
26342;DHT22;14054;50.108;8.640;2023-11-21T14:53:56;10.70;99.90
26342;DHT22;14054;50.108;8.640;2023-11-21T14:56:26;10.70;99.90
26342;DHT22;14054;50.108;8.640;2023-11-21T14:58:57;10.70;99.90
26342;DHT22;14054;50.108;8.640;2023-11-21T15:01:23;10.60;99.90
26342;DHT22;14054;50.108;8.640;2023-11-21T15:04:08;10.50;99.90
26342;DHT22;14054;50.108;8.640;2023-11-21T15:06:40;10.50;99.90
26342;DHT22;14054;50.108;8.640;2023-11-21T15:09:08;10.40;99.90
26342;DHT22;14054;50.108;8.640;2023-11-21T15:11:53;10.40;99.90
26342;DHT22;14054;50.108;8.640;2023-11-21T15:14:23;10.30;99.90
26342;DHT22;14054;50.108;8.640;2023-11-21T15:16:51;10.20;99.90
26342;DHT22;14054;50.108;8.640;2023-11-21T15:19:18;10.20;99.90
26342;DHT22;14054;50.108;8.640;2023-11-21T15:21:50;10.20;99.90
26342;DHT22;14054;50.108;8.640;2023-11-21T15:24:15;10.20;99.90
26342;DHT22;14054;50.108;8.640;2023-11-21T15:26:41;10.20;99.90
26342;DHT22;14054;50.108;8.640;2023-11-21T15:29:07;10.20;99.90
26342;DHT22;14054;50.108;8.640;2023-11-21T15:31:33;10.20;99.90
26342;DHT22;14054;50.108;8.640;2023-11-21T15:33:58;10.10;99.90
26342;DHT22;14054;50.108;8.640;2023-11-21T15:36:29;10.10;99.90
26342;DHT22;14054;50.108;8.640;2023-11-21T15:38:55;10.10;99.90
26342;DHT22;14054;50.108;8.640;2023-11-21T15:41:20;10.10;99.90
26342;DHT22;14054;50.108;8.640;2023-11-21T15:43:46;10.10;99.90
26342;DHT22;14054;50.108;8.640;2023-11-21T15:46:14;10.00;99.90
26342;DHT22;14054;50.108;8.640;2023-11-21T15:48:39;10.00;99.90
26342;DHT22;14054;50.108;8.640;2023-11-21T15:51:09;10.00;99.90